createdAt,value
2018-03-22T00:00:48.630Z,94.60
2018-03-22T00:01:48.654Z,94.60
2018-03-22T00:02:48.676Z,94.89
2018-03-22T00:03:48.699Z,94.32
2018-03-22T00:04:48.724Z,94.60
2018-03-22T00:05:48.747Z,95.73
2018-03-22T00:06:48.771Z,95.64
2018-03-22T00:07:48.794Z,95.54
2018-03-22T00:08:48.817Z,95.36
2018-03-22T00:09:48.841Z,94.60
2018-03-22T00:10:48.864Z,94.51
2018-03-22T00:11:48.937Z,94.60
2018-03-22T00:12:48.911Z,94.70
2018-03-22T00:13:48.935Z,93.84
2018-03-22T00:14:48.959Z,94.13
2018-03-22T00:15:48.981Z,94.13
2018-03-22T00:16:49.006Z,94.51
2018-03-22T00:17:49.028Z,94.32
2018-03-22T00:18:49.054Z,94.32
2018-03-22T00:19:49.075Z,94.79
2018-03-22T00:20:49.096Z,94.51
2018-03-22T00:21:49.126Z,94.60
2018-03-22T00:22:49.144Z,94.51
2018-03-22T00:23:49.168Z,94.79
2018-03-22T00:24:49.192Z,94.84
2018-03-22T00:25:49.215Z,94.41
2018-03-22T00:26:49.238Z,94.79
2018-03-22T00:27:49.262Z,94.89
2018-03-22T00:28:49.285Z,94.41
2018-03-22T00:29:49.309Z,94.60
2018-03-22T00:30:49.331Z,94.60
2018-03-22T00:31:49.355Z,94.65
2018-03-22T00:32:49.379Z,94.51
2018-03-22T00:33:49.401Z,95.45
2018-03-22T00:34:49.423Z,95.36
2018-03-22T00:35:49.446Z,96.11
2018-03-22T00:36:49.470Z,95.92
2018-03-22T00:37:49.499Z,96.30
2018-03-22T00:38:49.516Z,96.11
2018-03-22T00:39:49.539Z,96.11
2018-03-22T00:40:49.563Z,96.30
2018-03-22T00:41:49.591Z,96.58
2018-03-22T00:42:49.608Z,95.73
2018-03-22T00:43:49.635Z,96.30
2018-03-22T00:44:49.656Z,95.45
2018-03-22T00:45:49.681Z,95.64
2018-03-22T00:46:49.703Z,95.36
2018-03-22T00:47:49.727Z,95.36
2018-03-22T00:48:49.752Z,95.45
2018-03-22T00:49:49.774Z,95.64
2018-03-22T00:50:49.797Z,95.54
2018-03-22T00:51:49.820Z,95.45
2018-03-22T00:52:49.844Z,95.64
2018-03-22T00:53:49.867Z,95.07
2018-03-22T00:54:49.890Z,94.89
2018-03-22T00:55:49.914Z,95.54
2018-03-22T00:56:49.938Z,95.45
2018-03-22T00:57:49.962Z,95.45
2018-03-22T00:58:49.984Z,95.73
2018-03-22T00:59:50.009Z,95.64
2018-03-22T01:00:50.032Z,95.92
2018-03-22T01:01:50.068Z,95.64
2018-03-22T01:02:50.078Z,95.45
2018-03-22T01:03:50.101Z,96.01
2018-03-22T01:04:50.127Z,96.68
2018-03-22T01:05:50.150Z,97.01
2018-03-22T01:06:50.172Z,97.43
2018-03-22T01:07:50.197Z,97.77
2018-03-22T01:08:50.224Z,97.48
2018-03-22T01:09:50.244Z,97.29
2018-03-22T01:10:50.267Z,96.06
2018-03-22T01:11:50.292Z,96.44
2018-03-22T01:12:50.315Z,96.63
2018-03-22T01:13:50.338Z,96.82
2018-03-22T01:14:50.361Z,97.39
2018-03-22T01:15:50.385Z,97.58
2018-03-22T01:16:50.408Z,97.10
2018-03-22T01:17:50.432Z,96.91
2018-03-22T01:18:50.454Z,97.77
2018-03-22T01:19:50.479Z,98.43
2018-03-22T01:20:50.507Z,98.33
2018-03-22T01:21:50.526Z,98.14
2018-03-22T01:22:50.551Z,97.58
2018-03-22T01:23:50.573Z,97.58
2018-03-22T01:24:50.597Z,96.73
2018-03-22T01:25:50.620Z,96.44
2018-03-22T01:26:50.643Z,97.29
2018-03-22T01:27:50.667Z,97.20
2018-03-22T01:28:50.690Z,97.48
2018-03-22T01:29:50.714Z,96.54
2018-03-22T01:30:50.735Z,96.54
2018-03-22T01:31:50.760Z,95.97
2018-03-22T01:32:50.784Z,95.50
2018-03-22T01:33:50.809Z,95.68
2018-03-22T01:34:50.830Z,95.68
2018-03-22T01:35:50.854Z,96.16
2018-03-22T01:36:50.879Z,95.87
2018-03-22T01:37:50.902Z,95.59
2018-03-22T01:38:50.925Z,96.06
2018-03-22T01:39:50.946Z,95.78
2018-03-22T01:40:50.971Z,96.16
2018-03-22T01:41:50.995Z,97.01
2018-03-22T01:42:51.018Z,96.91
2018-03-22T01:43:51.046Z,96.68
2018-03-22T01:44:51.064Z,96.39
2018-03-22T01:45:51.088Z,97.05
2018-03-22T01:46:51.110Z,96.68
2018-03-22T01:47:51.135Z,97.05
2018-03-22T01:48:51.157Z,97.15
2018-03-22T01:49:51.181Z,96.86
2018-03-22T01:50:51.203Z,96.96
2018-03-22T01:51:51.227Z,97.43
2018-03-22T01:52:51.251Z,98.85
2018-03-22T01:53:51.273Z,98.28
2018-03-22T01:54:51.297Z,98.85
2018-03-22T01:55:51.320Z,98.00
2018-03-22T01:56:51.345Z,97.43
2018-03-22T01:57:51.369Z,96.77
2018-03-22T01:58:51.389Z,96.58
2018-03-22T01:59:51.413Z,96.58
2018-03-22T02:00:51.437Z,95.83
2018-03-22T02:01:51.470Z,95.64
2018-03-22T02:02:51.482Z,95.64
2018-03-22T02:03:51.506Z,96.68
2018-03-22T02:04:51.530Z,96.68
2018-03-22T02:05:51.553Z,96.39
2018-03-22T02:06:51.576Z,96.01
2018-03-22T02:07:51.598Z,96.30
2018-03-22T02:08:51.622Z,96.86
2018-03-22T02:09:51.646Z,97.24
2018-03-22T02:10:51.669Z,97.91
2018-03-22T02:11:51.692Z,98.47
2018-03-22T02:12:51.714Z,98.94
2018-03-22T02:13:51.741Z,97.91
2018-03-22T02:14:51.761Z,98.28
2018-03-22T02:15:51.783Z,98.00
2018-03-22T02:16:51.806Z,98.00
2018-03-22T02:17:51.830Z,98.00
2018-03-22T02:18:51.854Z,98.19
2018-03-22T02:19:51.878Z,98.28
2018-03-22T02:20:51.903Z,97.62
2018-03-22T02:21:51.923Z,98.38
2018-03-22T02:22:51.946Z,99.41
2018-03-22T02:23:51.968Z,99.88
2018-03-22T02:24:51.991Z,99.88
2018-03-22T02:25:52.016Z,99.99
2018-03-22T02:26:52.037Z,99.79
2018-03-22T02:27:52.062Z,98.28
2018-03-22T02:28:52.084Z,98.28
2018-03-22T02:29:52.107Z,98.10
2018-03-22T02:30:52.130Z,98.28
2018-03-22T02:31:52.154Z,98.10
2018-03-22T02:32:52.180Z,97.91
2018-03-22T02:33:52.199Z,98.66
2018-03-22T02:34:52.222Z,99.22
2018-03-22T02:35:52.246Z,98.19
2018-03-22T02:36:52.268Z,98.57
2018-03-22T02:37:52.293Z,98.10
2018-03-22T02:38:52.316Z,98.57
2018-03-22T02:39:52.337Z,98.85
2018-03-22T02:40:52.361Z,98.28
2018-03-22T02:41:52.384Z,99.13
2018-03-22T02:42:52.409Z,98.10
2018-03-22T02:43:52.428Z,98.47
2018-03-22T02:44:52.453Z,98.38
2018-03-22T02:45:52.475Z,97.05
2018-03-22T02:46:52.514Z,97.72
2018-03-22T02:47:52.519Z,98.00
2018-03-22T02:48:52.544Z,98.75
2018-03-22T02:49:52.566Z,99.99
2018-03-22T02:50:52.588Z,99.60
2018-03-22T02:51:52.622Z,99.70
2018-03-22T02:52:52.634Z,98.85
2018-03-22T02:53:52.656Z,99.32
2018-03-22T02:54:52.679Z,99.13
2018-03-22T02:55:52.704Z,99.13
2018-03-22T02:56:52.725Z,98.47
2018-03-22T02:57:52.750Z,98.10
2018-03-22T02:58:52.771Z,98.85
2018-03-22T02:59:52.793Z,99.99
2018-03-22T03:00:52.817Z,98.85
2018-03-22T03:01:52.838Z,98.66
2018-03-22T03:02:52.861Z,99.51
2018-03-22T03:03:52.884Z,98.66
2018-03-22T03:04:52.906Z,99.41
2018-03-22T03:05:52.932Z,99.13
2018-03-22T03:06:52.952Z,98.57
2018-03-22T03:07:52.975Z,98.10
2018-03-22T03:08:52.998Z,98.28
2018-03-22T03:09:53.021Z,97.91
2018-03-22T03:10:53.043Z,98.47
2018-03-22T03:11:53.065Z,98.10
2018-03-22T03:12:53.089Z,99.22
2018-03-22T03:13:53.111Z,99.88
2018-03-22T03:14:53.134Z,99.99
2018-03-22T03:15:53.158Z,99.99
2018-03-22T03:16:53.180Z,99.99
2018-03-22T03:17:53.202Z,99.99
2018-03-22T03:18:53.229Z,99.99
2018-03-22T03:19:53.248Z,99.99
2018-03-22T03:20:53.271Z,99.99
2018-03-22T03:21:53.293Z,99.70
2018-03-22T03:22:53.314Z,99.99
2018-03-22T03:23:53.338Z,99.99
2018-03-22T03:24:53.364Z,99.99
2018-03-22T03:25:53.384Z,99.99
2018-03-22T03:26:53.413Z,99.99
2018-03-22T03:27:53.430Z,99.99
2018-03-22T03:28:53.455Z,99.99
2018-03-22T03:29:53.475Z,99.99
2018-03-22T03:30:53.498Z,99.99
2018-03-22T03:31:53.522Z,99.99
2018-03-22T03:32:53.543Z,99.99
2018-03-22T03:33:53.565Z,99.41
2018-03-22T03:34:54.758Z,99.22
2018-03-22T03:35:53.613Z,99.22
2018-03-22T03:36:53.632Z,99.70
2018-03-22T03:37:53.657Z,99.32
2018-03-22T03:38:53.678Z,99.32
2018-03-22T03:39:53.702Z,99.70
2018-03-22T03:40:53.725Z,99.99
2018-03-22T03:41:53.747Z,99.99
2018-03-22T03:42:53.769Z,99.99
2018-03-22T03:43:53.798Z,99.99
2018-03-22T03:44:53.815Z,99.99
2018-03-22T03:45:53.838Z,99.99
2018-03-22T03:46:53.864Z,99.99
2018-03-22T03:47:53.884Z,98.66
2018-03-22T03:48:53.906Z,98.57
2018-03-22T03:49:53.930Z,97.91
2018-03-22T03:50:53.951Z,98.10
2018-03-22T03:51:53.975Z,98.75
2018-03-22T03:52:53.998Z,99.22
2018-03-22T03:53:54.022Z,99.70
2018-03-22T03:54:54.042Z,99.99
2018-03-22T03:55:54.065Z,99.99
2018-03-22T03:56:54.091Z,99.99
2018-03-22T03:57:54.111Z,99.99
2018-03-22T03:58:54.133Z,99.46
2018-03-22T03:59:54.159Z,99.65
2018-03-22T04:00:54.178Z,99.51
2018-03-22T04:01:54.201Z,99.99
2018-03-22T04:02:54.224Z,99.99
2018-03-22T04:03:54.247Z,99.99
2018-03-22T04:04:54.269Z,99.99
2018-03-22T04:05:54.292Z,99.99
2018-03-22T04:06:54.314Z,99.99
2018-03-22T04:07:54.338Z,99.65
2018-03-22T04:08:54.362Z,99.84
2018-03-22T04:09:54.386Z,99.99
2018-03-22T04:10:54.406Z,99.99
2018-03-22T04:11:54.428Z,99.46
2018-03-22T04:12:54.450Z,99.65
2018-03-22T04:13:54.474Z,99.46
2018-03-22T04:14:54.495Z,99.74
2018-03-22T04:15:54.518Z,99.65
2018-03-22T04:16:54.540Z,99.74
2018-03-22T04:17:54.564Z,99.51
2018-03-22T04:18:54.586Z,99.99
2018-03-22T04:19:54.609Z,99.99
2018-03-22T04:20:54.634Z,99.99
2018-03-22T04:21:54.653Z,99.99
2018-03-22T04:22:54.678Z,99.99
2018-03-22T04:23:54.699Z,99.88
2018-03-22T04:24:54.721Z,99.98
2018-03-22T04:25:54.744Z,99.99
2018-03-22T04:26:54.807Z,99.37
2018-03-22T04:27:54.790Z,99.99
2018-03-22T04:28:54.813Z,99.99
2018-03-22T04:29:54.835Z,99.99
2018-03-22T04:30:54.858Z,99.99
2018-03-22T04:31:54.879Z,99.99
2018-03-22T04:32:54.901Z,99.99
2018-03-22T04:33:54.928Z,99.99
2018-03-22T04:34:54.946Z,99.99
2018-03-22T04:35:54.969Z,99.99
2018-03-22T04:36:54.992Z,99.99
2018-03-22T04:37:55.015Z,99.99
2018-03-22T04:38:55.036Z,99.99
2018-03-22T04:39:55.061Z,99.99
2018-03-22T04:40:55.083Z,99.99
2018-03-22T04:41:55.106Z,99.99
2018-03-22T04:42:55.127Z,99.99
2018-03-22T04:43:55.149Z,99.99
2018-03-22T04:44:55.171Z,99.99
2018-03-22T04:45:55.195Z,99.99
2018-03-22T04:46:55.216Z,99.99
2018-03-22T04:47:55.240Z,99.99
2018-03-22T04:48:55.262Z,99.99
2018-03-22T04:49:55.286Z,99.99
2018-03-22T04:50:55.312Z,99.99
2018-03-22T04:51:55.330Z,99.99
2018-03-22T04:52:55.356Z,99.99
2018-03-22T04:53:55.376Z,99.98
2018-03-22T04:54:55.398Z,99.74
2018-03-22T04:55:55.424Z,99.99
2018-03-22T04:56:55.443Z,99.99
2018-03-22T04:57:55.466Z,99.99
2018-03-22T04:58:55.489Z,99.99
2018-03-22T04:59:55.510Z,99.99
2018-03-22T05:00:55.533Z,99.99
2018-03-22T05:01:55.556Z,99.99
2018-03-22T05:02:55.578Z,99.99
2018-03-22T05:03:55.600Z,99.99
2018-03-22T05:04:55.623Z,99.99
2018-03-22T05:05:55.646Z,99.99
2018-03-22T05:06:55.680Z,99.99
2018-03-22T05:07:55.691Z,99.99
2018-03-22T05:08:55.713Z,99.99
2018-03-22T05:09:55.736Z,99.99
2018-03-22T05:10:55.756Z,99.99
2018-03-22T05:11:55.780Z,99.99
2018-03-22T05:12:55.803Z,99.32
2018-03-22T05:13:55.826Z,99.22
2018-03-22T05:14:55.849Z,99.99
2018-03-22T05:15:55.870Z,99.32
2018-03-22T05:16:55.895Z,99.84
2018-03-22T05:17:55.915Z,99.27
2018-03-22T05:18:55.938Z,99.99
2018-03-22T05:19:55.958Z,99.99
2018-03-22T05:20:55.982Z,99.99
2018-03-22T05:21:56.005Z,99.99
2018-03-22T05:22:56.027Z,99.99
2018-03-22T05:23:56.050Z,99.99
2018-03-22T05:24:56.073Z,99.99
2018-03-22T05:25:56.096Z,99.70
2018-03-22T05:26:56.117Z,99.41
2018-03-22T05:27:56.139Z,99.99
2018-03-22T05:28:56.216Z,99.99
2018-03-22T05:29:56.188Z,99.99
2018-03-22T05:30:56.206Z,99.99
2018-03-22T05:31:56.230Z,99.99
2018-03-22T05:32:56.253Z,99.99
2018-03-22T05:33:56.275Z,99.99
2018-03-22T05:34:56.297Z,99.99
2018-03-22T05:35:56.319Z,99.99
2018-03-22T05:36:56.343Z,99.99
2018-03-22T05:37:56.365Z,99.99
2018-03-22T05:38:56.391Z,99.99
2018-03-22T05:39:56.455Z,99.99
2018-03-22T05:40:56.433Z,99.99
2018-03-22T05:41:56.456Z,99.99
2018-03-22T05:42:56.477Z,99.70
2018-03-22T05:43:56.503Z,99.60
2018-03-22T05:44:56.522Z,99.99
2018-03-22T05:45:56.547Z,99.99
2018-03-22T05:46:56.567Z,99.98
2018-03-22T05:47:56.590Z,99.99
2018-03-22T05:48:56.613Z,99.99
2018-03-22T05:49:56.636Z,99.99
2018-03-22T05:50:56.661Z,99.70
2018-03-22T05:51:56.680Z,99.60
2018-03-22T05:52:56.705Z,98.94
2018-03-22T05:53:56.726Z,99.41
2018-03-22T05:54:56.753Z,99.41
2018-03-22T05:55:56.774Z,98.66
2018-03-22T05:56:56.794Z,98.85
2018-03-22T05:57:56.816Z,98.38
2018-03-22T05:58:56.838Z,98.47
2018-03-22T05:59:56.865Z,99.60
2018-03-22T06:00:56.884Z,99.70
2018-03-22T06:01:56.907Z,99.70
2018-03-22T06:02:56.938Z,98.94
2018-03-22T06:03:56.952Z,99.32
2018-03-22T06:04:56.977Z,98.85
2018-03-22T06:05:56.997Z,99.22
2018-03-22T06:06:57.020Z,98.38
2018-03-22T06:07:57.043Z,97.34
2018-03-22T06:08:57.066Z,97.24
2018-03-22T06:09:57.090Z,97.05
2018-03-22T06:10:57.112Z,97.05
2018-03-22T06:11:57.135Z,96.86
2018-03-22T06:12:57.158Z,96.58
2018-03-22T06:13:57.182Z,96.68
2018-03-22T06:14:57.204Z,96.68
2018-03-22T06:15:57.227Z,96.86
2018-03-22T06:16:57.250Z,97.05
2018-03-22T06:17:57.274Z,96.96
2018-03-22T06:18:57.295Z,97.05
2018-03-22T06:19:57.320Z,96.68
2018-03-22T06:20:57.345Z,96.20
2018-03-22T06:21:57.367Z,96.11
2018-03-22T06:22:57.400Z,95.64
2018-03-22T06:23:57.413Z,95.40
2018-03-22T06:24:57.443Z,94.60
2018-03-22T06:25:57.460Z,94.51
2018-03-22T06:26:57.488Z,94.08
2018-03-22T06:27:57.507Z,93.70
2018-03-22T06:28:57.531Z,92.94
2018-03-22T06:29:57.554Z,93.13
2018-03-22T06:30:57.577Z,92.29
2018-03-22T06:31:57.601Z,92.10
2018-03-22T06:32:57.625Z,91.34
2018-03-22T06:33:57.649Z,91.91
2018-03-22T06:34:57.672Z,91.91
2018-03-22T06:35:57.696Z,92.10
2018-03-22T06:36:57.720Z,92.76
2018-03-22T06:37:57.744Z,92.38
2018-03-22T06:38:57.766Z,92.10
2018-03-22T06:39:57.791Z,91.34
2018-03-22T06:40:57.815Z,92.19
2018-03-22T06:41:57.839Z,94.93
2018-03-22T06:42:57.862Z,94.98
2018-03-22T06:43:57.886Z,95.17
2018-03-22T06:44:57.910Z,93.56
2018-03-22T06:45:57.933Z,92.24
2018-03-22T06:46:57.957Z,90.77
2018-03-22T06:47:57.982Z,90.77
2018-03-22T06:48:58.005Z,89.54
2018-03-22T06:49:58.033Z,88.12
2018-03-22T06:50:58.057Z,86.23
2018-03-22T06:51:58.077Z,85.80
2018-03-22T06:52:58.103Z,85.42
2018-03-22T06:53:58.133Z,85.05
2018-03-22T06:54:58.151Z,84.77
2018-03-22T06:55:58.175Z,83.91
2018-03-22T06:56:58.224Z,84.10
2018-03-22T06:57:58.225Z,83.06
2018-03-22T06:58:58.248Z,83.44
2018-03-22T06:59:58.273Z,83.06
2018-03-22T07:00:58.298Z,83.44
2018-03-22T07:01:58.322Z,82.97
2018-03-22T07:02:58.347Z,81.83
2018-03-22T07:03:58.372Z,81.64
2018-03-22T07:04:58.397Z,80.98
2018-03-22T07:05:58.426Z,80.79
2018-03-22T07:06:58.487Z,80.13
2018-03-22T07:07:58.470Z,80.22
2018-03-22T07:08:58.496Z,79.47
2018-03-22T07:09:58.521Z,79.37
2018-03-22T07:10:58.546Z,79.66
2018-03-22T07:11:58.571Z,79.75
2018-03-22T07:12:58.596Z,80.22
2018-03-22T07:13:58.622Z,80.22
2018-03-22T07:14:58.646Z,80.32
2018-03-22T07:15:58.673Z,80.13
2018-03-22T07:16:58.698Z,80.04
2018-03-22T07:17:58.723Z,80.88
2018-03-22T07:18:58.748Z,80.41
2018-03-22T07:19:58.774Z,81.17
2018-03-22T07:20:58.799Z,81.45
2018-03-22T07:21:58.824Z,81.74
2018-03-22T07:22:58.850Z,82.02
2018-03-22T07:23:58.875Z,81.45
2018-03-22T07:24:58.902Z,81.17
2018-03-22T07:25:58.941Z,80.41
2018-03-22T07:26:58.956Z,79.66
2018-03-22T07:27:58.981Z,79.66
2018-03-22T07:28:59.007Z,79.94
2018-03-22T07:29:59.033Z,79.18
2018-03-22T07:30:59.057Z,80.32
2018-03-22T07:31:59.084Z,80.41
2018-03-22T07:32:59.111Z,79.18
2018-03-22T07:33:59.136Z,78.14
2018-03-22T07:34:59.163Z,77.76
2018-03-22T07:35:59.190Z,78.42
2018-03-22T07:36:59.216Z,77.76
2018-03-22T07:37:59.243Z,77.39
2018-03-22T07:38:59.275Z,77.48
2018-03-22T07:39:59.295Z,77.10
2018-03-22T07:40:59.321Z,77.20
2018-03-22T07:41:59.349Z,77.01
2018-03-22T07:42:59.375Z,77.01
2018-03-22T07:43:59.401Z,78.33
2018-03-22T07:44:59.427Z,78.65
2018-03-22T07:45:59.456Z,78.37
2018-03-22T07:46:59.482Z,77.61
2018-03-22T07:47:59.510Z,77.14
2018-03-22T07:48:59.537Z,76.38
2018-03-22T07:49:59.567Z,75.76
2018-03-22T07:50:59.591Z,75.28
2018-03-22T07:51:59.616Z,73.96
2018-03-22T07:52:59.643Z,73.39
2018-03-22T07:53:59.670Z,72.25
2018-03-22T07:54:59.695Z,72.53
2018-03-22T07:55:59.724Z,72.53
2018-03-22T07:56:59.751Z,72.73
2018-03-22T07:57:59.783Z,72.77
2018-03-22T07:58:59.830Z,72.57
2018-03-22T07:59:59.831Z,72.77
2018-03-22T08:00:59.858Z,72.77
2018-03-22T08:01:59.887Z,72.86
2018-03-22T08:02:59.917Z,72.67
2018-03-22T08:03:59.941Z,72.48
2018-03-22T08:04:59.968Z,71.62
2018-03-22T08:05:59.997Z,70.58
2018-03-22T08:07:00.023Z,70.62
2018-03-22T08:08:00.050Z,69.48
2018-03-22T08:09:00.078Z,68.54
2018-03-22T08:10:00.106Z,67.30
2018-03-22T08:11:00.134Z,66.54
2018-03-22T08:12:00.164Z,65.97
2018-03-22T08:13:00.186Z,65.06
2018-03-22T08:14:00.216Z,63.45
2018-03-22T08:15:00.242Z,63.26
2018-03-22T08:16:00.271Z,63.17
2018-03-22T08:17:00.298Z,63.26
2018-03-22T08:18:00.328Z,62.31
2018-03-22T08:19:00.356Z,62.50
2018-03-22T08:20:00.385Z,61.17
2018-03-22T08:21:00.412Z,61.55
2018-03-22T08:22:00.441Z,62.12
2018-03-22T08:23:00.468Z,62.31
2018-03-22T08:24:00.502Z,62.88
2018-03-22T08:25:00.526Z,63.17
2018-03-22T08:26:00.555Z,63.35
2018-03-22T08:27:00.585Z,62.78
2018-03-22T08:28:00.613Z,62.31
2018-03-22T08:29:00.642Z,62.12
2018-03-22T08:30:00.670Z,63.64
2018-03-22T08:31:00.700Z,63.35
2018-03-22T08:32:00.729Z,63.26
2018-03-22T08:33:00.757Z,63.35
2018-03-22T08:34:00.790Z,63.10
2018-03-22T08:35:00.866Z,62.53
2018-03-22T08:36:00.845Z,62.43
2018-03-22T08:37:00.877Z,61.30
2018-03-22T08:38:00.905Z,60.10
2018-03-22T08:39:00.937Z,58.48
2018-03-22T08:40:00.962Z,56.96
2018-03-22T08:41:00.993Z,55.73
2018-03-22T08:42:01.023Z,55.35
2018-03-22T08:43:01.052Z,55.09
2018-03-22T08:44:01.082Z,54.05
2018-03-22T08:45:01.112Z,53.03
2018-03-22T08:46:01.144Z,52.08
2018-03-22T08:47:01.194Z,50.65
2018-03-22T08:48:01.202Z,50.37
2018-03-22T08:49:01.232Z,50.27
2018-03-22T08:50:01.262Z,50.65
2018-03-22T08:51:01.291Z,50.65
2018-03-22T08:52:01.322Z,50.27
2018-03-22T08:53:01.353Z,50.84
2018-03-22T08:54:01.385Z,51.25
2018-03-22T08:55:01.415Z,51.34
2018-03-22T08:56:01.510Z,51.53
2018-03-22T08:57:01.483Z,50.79
2018-03-22T08:58:01.507Z,50.32
2018-03-22T08:59:01.540Z,49.37
2018-03-22T09:00:01.571Z,48.42
2018-03-22T09:01:01.603Z,49.15
2018-03-22T09:02:01.696Z,48.77
2018-03-22T09:03:01.665Z,49.41
2018-03-22T09:04:01.700Z,50.27
2018-03-22T09:05:01.756Z,50.68
2018-03-22T09:06:01.761Z,50.01
2018-03-22T09:07:01.793Z,49.94
2018-03-22T09:08:01.826Z,48.23
2018-03-22T09:09:01.859Z,47.49
2018-03-22T09:10:01.891Z,45.89
2018-03-22T09:11:01.925Z,43.73
2018-03-22T09:12:02.012Z,41.84
2018-03-22T09:13:01.987Z,41.20
2018-03-22T09:14:02.020Z,39.31
2018-03-22T09:15:02.059Z,38.35
2018-03-22T09:16:02.086Z,37.61
2018-03-22T09:17:02.119Z,36.87
2018-03-22T09:18:02.155Z,35.45
2018-03-22T09:19:02.187Z,34.03
2018-03-22T09:20:02.220Z,33.19
2018-03-22T09:21:02.257Z,31.50
2018-03-22T09:22:02.290Z,30.18
2018-03-22T09:23:02.325Z,29.31
2018-03-22T09:24:02.361Z,29.12
2018-03-22T09:25:02.396Z,28.44
2018-03-22T09:26:02.431Z,28.90
2018-03-22T09:27:02.468Z,28.80
2018-03-22T09:28:02.503Z,27.94
2018-03-22T09:29:02.541Z,28.15
2018-03-22T09:30:02.578Z,28.11
2018-03-22T09:31:02.614Z,28.86
2018-03-22T09:32:02.650Z,29.83
2018-03-22T09:33:02.690Z,29.83
2018-03-22T09:34:02.726Z,28.90
2018-03-22T09:35:02.763Z,26.62
2018-03-22T09:36:02.800Z,25.57
2018-03-22T09:37:02.837Z,24.93
2018-03-22T09:38:02.876Z,24.43
2018-03-22T09:39:02.913Z,24.26
2018-03-22T09:40:02.953Z,24.26
2018-03-22T09:41:02.990Z,24.16
2018-03-22T09:42:03.028Z,23.38
2018-03-22T09:43:03.068Z,24.71
2018-03-22T09:44:03.107Z,25.30
2018-03-22T09:45:03.146Z,24.84
2018-03-22T09:46:03.185Z,24.43
2018-03-22T09:47:03.229Z,25.25
2018-03-22T09:48:03.263Z,26.30
2018-03-22T09:49:03.303Z,26.85
2018-03-22T09:50:03.345Z,27.71
2018-03-22T09:51:03.380Z,27.98
2018-03-22T09:52:03.420Z,28.86
2018-03-22T09:53:03.461Z,28.00
2018-03-22T09:54:03.499Z,27.33
2018-03-22T09:55:03.537Z,26.78
2018-03-22T09:56:03.576Z,25.93
2018-03-22T09:57:03.651Z,25.07
2018-03-22T09:58:03.655Z,24.51
2018-03-22T09:59:03.693Z,23.65
2018-03-22T10:00:03.735Z,24.69
2018-03-22T10:01:03.777Z,24.96
2018-03-22T10:02:03.811Z,25.62
2018-03-22T10:03:03.850Z,26.34
2018-03-22T10:04:03.894Z,27.76
2018-03-22T10:05:03.930Z,28.89
2018-03-22T10:06:03.969Z,29.94
2018-03-22T10:07:04.006Z,30.79
2018-03-22T10:08:04.046Z,30.87
2018-03-22T10:09:04.083Z,32.03
2018-03-22T10:10:04.121Z,32.01
2018-03-22T10:11:04.159Z,32.96
2018-03-22T10:12:04.198Z,33.17
2018-03-22T10:13:04.236Z,33.82
2018-03-22T10:14:04.272Z,34.20
2018-03-22T10:15:04.309Z,34.20
2018-03-22T10:16:04.346Z,34.39
2018-03-22T10:17:04.383Z,34.58
2018-03-22T10:18:04.420Z,34.39
2018-03-22T10:19:04.457Z,34.67
2018-03-22T10:20:04.493Z,35.52
2018-03-22T10:21:04.529Z,35.97
2018-03-22T10:22:04.565Z,37.12
2018-03-22T10:23:04.601Z,38.09
2018-03-22T10:24:04.636Z,37.32
2018-03-22T10:25:04.677Z,36.94
2018-03-22T10:26:04.710Z,36.16
2018-03-22T10:27:04.743Z,37.30
2018-03-22T10:28:04.779Z,37.49
2018-03-22T10:29:04.813Z,37.99
2018-03-22T10:30:04.850Z,37.61
2018-03-22T10:31:04.886Z,37.52
2018-03-22T10:32:04.922Z,37.61
2018-03-22T10:33:04.955Z,37.13
2018-03-22T10:34:04.990Z,36.58
2018-03-22T10:35:05.024Z,36.28
2018-03-22T10:36:05.059Z,35.99
2018-03-22T10:37:05.094Z,36.12
2018-03-22T10:38:05.129Z,35.08
2018-03-22T10:39:05.163Z,34.61
2018-03-22T10:40:05.200Z,34.71
2018-03-22T10:41:05.234Z,33.97
2018-03-22T10:42:05.268Z,32.17
2018-03-22T10:43:05.308Z,32.17
2018-03-22T10:44:05.349Z,31.80
2018-03-22T10:45:05.376Z,31.51
2018-03-22T10:46:05.411Z,31.90
2018-03-22T10:47:05.448Z,32.28
2018-03-22T10:48:05.482Z,32.24
2018-03-22T10:49:05.519Z,33.00
2018-03-22T10:50:05.560Z,33.95
2018-03-22T10:51:05.596Z,35.27
2018-03-22T10:52:05.626Z,36.10
2018-03-22T10:53:05.663Z,36.03
2018-03-22T10:54:05.700Z,35.93
2018-03-22T10:55:05.737Z,35.66
2018-03-22T10:56:05.770Z,35.38
2018-03-22T10:57:05.809Z,35.28
2018-03-22T10:58:05.844Z,35.11
2018-03-22T10:59:05.878Z,34.27
2018-03-22T11:00:05.915Z,33.31
2018-03-22T11:01:05.951Z,33.50
2018-03-22T11:02:05.989Z,33.79
2018-03-22T11:03:06.022Z,33.33
2018-03-22T11:04:06.060Z,34.46
2018-03-22T11:05:06.099Z,32.79
2018-03-22T11:06:06.177Z,30.61
2018-03-22T11:07:06.169Z,29.76
2018-03-22T11:08:06.206Z,28.90
2018-03-22T11:09:06.246Z,28.53
2018-03-22T11:10:06.281Z,29.57
2018-03-22T11:11:06.320Z,29.74
2018-03-22T11:12:06.359Z,29.76
2018-03-22T11:13:06.397Z,29.74
2018-03-22T11:14:06.436Z,30.03
2018-03-22T11:15:06.474Z,29.94
2018-03-22T11:16:06.515Z,30.41
2018-03-22T11:17:06.552Z,29.98
2018-03-22T11:18:06.592Z,28.81
2018-03-22T11:19:06.630Z,28.83
2018-03-22T11:20:06.669Z,29.09
2018-03-22T11:21:06.710Z,28.81
2018-03-22T11:22:06.751Z,28.45
2018-03-22T11:23:06.786Z,27.87
2018-03-22T11:24:06.828Z,27.81
2018-03-22T11:25:06.869Z,27.50
2018-03-22T11:26:06.910Z,28.16
2018-03-22T11:27:06.949Z,28.35
2018-03-22T11:28:06.990Z,29.01
2018-03-22T11:29:07.031Z,29.22
2018-03-22T11:30:07.072Z,30.40
2018-03-22T11:31:07.112Z,30.72
2018-03-22T11:32:07.153Z,29.30
2018-03-22T11:33:07.193Z,29.57
2018-03-22T11:34:07.234Z,30.70
2018-03-22T11:35:07.274Z,31.55
2018-03-22T11:36:07.314Z,32.31
2018-03-22T11:37:07.354Z,32.57
2018-03-22T11:38:07.394Z,33.54
2018-03-22T11:39:07.434Z,33.15
2018-03-22T11:40:07.475Z,33.98
2018-03-22T11:41:07.515Z,35.68
2018-03-22T11:42:07.555Z,36.73
2018-03-22T11:43:07.646Z,37.59
2018-03-22T11:44:07.634Z,37.66
2018-03-22T11:45:07.673Z,38.89
2018-03-22T11:46:07.714Z,39.17
2018-03-22T11:47:07.750Z,39.92
2018-03-22T11:48:07.788Z,40.94
2018-03-22T11:49:07.825Z,42.08
2018-03-22T11:50:07.864Z,42.66
2018-03-22T11:51:07.899Z,42.66
2018-03-22T11:52:07.937Z,42.76
2018-03-22T11:53:07.975Z,42.66
2018-03-22T11:54:08.010Z,42.94
2018-03-22T11:55:08.047Z,43.61
2018-03-22T11:56:08.082Z,43.21
2018-03-22T11:57:08.119Z,43.87
2018-03-22T11:58:08.154Z,45.66
2018-03-22T11:59:08.191Z,46.99
2018-03-22T12:00:08.224Z,47.09
2018-03-22T12:01:08.260Z,47.94
2018-03-22T12:02:08.295Z,48.44
2018-03-22T12:03:08.329Z,49.18
2018-03-22T12:04:08.363Z,48.99
2018-03-22T12:05:08.398Z,49.37
2018-03-22T12:06:08.432Z,49.65
2018-03-22T12:07:08.465Z,50.39
2018-03-22T12:08:08.503Z,51.34
2018-03-22T12:09:08.534Z,51.34
2018-03-22T12:10:08.574Z,50.99
2018-03-22T12:11:08.640Z,50.32
2018-03-22T12:12:08.633Z,49.56
2018-03-22T12:13:08.667Z,49.08
2018-03-22T12:14:08.700Z,49.11
2018-03-22T12:15:08.733Z,49.20
2018-03-22T12:16:08.766Z,50.25
2018-03-22T12:17:08.799Z,50.60
2018-03-22T12:18:08.831Z,50.99
2018-03-22T12:19:08.864Z,51.37
2018-03-22T12:20:08.897Z,51.18
2018-03-22T12:21:08.929Z,50.92
2018-03-22T12:22:08.965Z,51.20
2018-03-22T12:23:08.996Z,51.30
2018-03-22T12:24:09.028Z,51.01
2018-03-22T12:25:09.061Z,50.92
2018-03-22T12:26:09.094Z,50.82
2018-03-22T12:27:09.130Z,53.17
2018-03-22T12:28:09.159Z,56.00
2018-03-22T12:29:09.192Z,58.18
2018-03-22T12:30:09.229Z,60.35
2018-03-22T12:31:09.256Z,62.53
2018-03-22T12:32:09.293Z,64.24
2018-03-22T12:33:09.320Z,65.44
2018-03-22T12:34:09.355Z,66.67
2018-03-22T12:35:09.385Z,68.01
2018-03-22T12:36:09.419Z,68.48
2018-03-22T12:37:09.449Z,68.01
2018-03-22T12:38:09.482Z,67.19
2018-03-22T12:39:09.514Z,66.33
2018-03-22T12:40:09.544Z,65.28
2018-03-22T12:41:09.576Z,63.76
2018-03-22T12:42:09.608Z,63.29
2018-03-22T12:43:09.643Z,63.01
2018-03-22T12:44:09.723Z,63.57
2018-03-22T12:45:09.701Z,63.39
2018-03-22T12:46:09.735Z,64.53
2018-03-22T12:47:09.764Z,64.81
2018-03-22T12:48:09.795Z,65.47
2018-03-22T12:49:09.827Z,66.52
2018-03-22T12:50:09.861Z,67.25
2018-03-22T12:51:09.888Z,69.34
2018-03-22T12:52:09.919Z,71.62
2018-03-22T12:53:09.955Z,72.75